Time;durP1;ratioP1;P1;durP2;ratioP2;P2;SDS_P1;SDS_P2;PMS_P1;PMS_P2;Temp;Humidity;BMP_temperature;BMP_pressure;BME280_temperature;BME280_humidity;BME280_pressure;Samples;Min_cycle;Max_cycle;Signal;HPM_P1;HPM_P2
2021/01/21 00:00:22;;;;;;;115.13;51.57;;;-0.10;99.90;;;;;;4172925;28;20750;-58
2021/01/21 00:02:23;;;;;;;104.83;47.37;;;-0.10;99.90;;;;;;4171127;28;20344;-59
2021/01/21 00:04:24;;;;;;;114.87;51.13;;;-0.20;99.90;;;;;;4173217;28;20730;-59
2021/01/21 00:06:26;;;;;;;106.33;49.97;;;-0.20;99.90;;;;;;4171493;28;20772;-61
2021/01/21 00:08:27;;;;;;;105.90;50.10;;;-0.20;99.90;;;;;;4172873;28;20324;-62
2021/01/21 00:10:29;;;;;;;116.03;51.13;;;-0.30;99.90;;;;;;4171564;28;20323;-58
2021/01/21 00:12:31;;;;;;;110.83;49.13;;;-0.30;99.90;;;;;;4172599;28;20258;-58
2021/01/21 00:14:32;;;;;;;108.97;51.40;;;-0.30;99.90;;;;;;4172229;28;20339;-55
2021/01/21 00:16:33;;;;;;;110.23;50.10;;;-0.30;99.90;;;;;;4171979;28;20305;-57
2021/01/21 00:18:34;;;;;;;119.77;53.33;;;-0.30;99.90;;;;;;4172239;28;20788;-61
2021/01/21 00:20:35;;;;;;;99.53;48.23;;;-0.30;99.90;;;;;;4171481;28;20308;-58
2021/01/21 00:22:37;;;;;;;114.73;50.13;;;-0.30;99.90;;;;;;4172746;28;20352;-55
2021/01/21 00:24:38;;;;;;;106.63;48.93;;;-0.30;99.90;;;;;;4171012;28;20425;-56
2021/01/21 00:26:39;;;;;;;102.80;48.57;;;-0.30;99.90;;;;;;4172771;28;20278;-57
2021/01/21 00:28:40;;;;;;;107.83;51.23;;;-0.30;99.90;;;;;;4171440;28;20332;-53
2021/01/21 00:30:41;;;;;;;101.93;49.13;;;-0.20;99.90;;;;;;4173121;28;20344;-55
2021/01/21 00:32:43;;;;;;;114.37;52.93;;;-0.30;99.90;;;;;;4171799;28;20270;-55
2021/01/21 00:34:44;;;;;;;112.53;50.00;;;-0.30;99.90;;;;;;4173017;28;20750;-59
2021/01/21 00:36:45;;;;;;;110.57;52.30;;;-0.30;99.90;;;;;;4171099;28;20278;-57
2021/01/21 00:38:46;;;;;;;118.97;54.43;;;-0.30;99.90;;;;;;4172657;28;20266;-59
2021/01/21 00:40:48;;;;;;;118.20;52.97;;;-0.30;99.90;;;;;;4171527;28;20319;-54
2021/01/21 00:42:49;;;;;;;115.47;53.43;;;-0.30;99.90;;;;;;4174153;28;20285;-60
2021/01/21 00:44:50;;;;;;;114.83;51.67;;;-0.30;99.90;;;;;;4175240;28;20270;-59
2021/01/21 00:46:51;;;;;;;115.13;51.50;;;-0.30;99.90;;;;;;4191405;28;20269;-59
2021/01/21 00:48:53;;;;;;;118.27;51.97;;;-0.30;99.90;;;;;;4187666;28;20273;-57
2021/01/21 00:50:54;;;;;;;120.20;54.93;;;-0.30;99.90;;;;;;4174223;28;20885;-57
2021/01/21 00:52:55;;;;;;;112.23;52.00;;;-0.30;99.90;;;;;;4175948;28;20278;-58
2021/01/21 00:54:56;;;;;;;124.10;53.67;;;-0.30;99.90;;;;;;4173714;28;20737;-58
2021/01/21 00:56:57;;;;;;;122.43;52.77;;;-0.40;99.90;;;;;;4175795;28;20622;-58
2021/01/21 00:58:59;;;;;;;111.87;52.40;;;-0.30;99.90;;;;;;4174419;28;20312;-54
2021/01/21 01:01:00;;;;;;;115.43;51.87;;;-0.30;99.90;;;;;;4176307;28;20265;-55
2021/01/21 01:03:04;;;;;;;110.33;51.83;;;-0.30;99.90;;;;;;4173829;28;20277;-59
2021/01/21 01:05:06;;;;;;;108.20;50.47;;;-0.30;99.90;;;;;;4175796;28;21110;-56
2021/01/21 01:07:07;;;;;;;116.03;51.23;;;-0.20;99.90;;;;;;4174903;28;20266;-56
2021/01/21 01:09:08;;;;;;;114.77;51.83;;;-0.20;99.90;;;;;;4175331;28;20342;-58
2021/01/21 01:11:10;;;;;;;115.23;51.17;;;-0.20;99.90;;;;;;4173369;28;20274;-57
2021/01/21 01:13:11;;;;;;;106.17;49.23;;;-0.20;99.90;;;;;;4174544;28;20274;-57
2021/01/21 01:15:13;;;;;;;113.23;50.13;;;-0.20;99.90;;;;;;4174105;28;20258;-54
2021/01/21 01:17:14;;;;;;;104.30;51.13;;;-0.20;99.90;;;;;;4174585;28;20324;-54
2021/01/21 01:19:15;;;;;;;103.10;48.63;;;-0.30;99.90;;;;;;4174805;28;20258;-54
2021/01/21 01:21:16;;;;;;;114.97;50.87;;;-0.30;99.90;;;;;;4177507;28;20296;-58
2021/01/21 01:23:17;;;;;;;119.73;52.30;;;-0.30;99.90;;;;;;4191191;28;20270;-58
2021/01/21 01:25:20;;;;;;;107.30;48.30;;;-0.30;99.90;;;;;;4190249;28;20261;-56
2021/01/21 01:27:21;;;;;;;112.03;49.67;;;-0.30;99.90;;;;;;4191786;28;20664;-52
2021/01/21 01:29:23;;;;;;;104.00;49.07;;;-0.30;99.90;;;;;;4190168;28;20741;-57
2021/01/21 01:31:26;;;;;;;104.17;49.23;;;-0.30;99.90;;;;;;4184991;28;20770;-58
2021/01/21 01:33:27;;;;;;;108.90;48.17;;;-0.30;99.90;;;;;;4173781;28;20270;-59
2021/01/21 01:35:28;;;;;;;113.33;51.80;;;-0.30;99.90;;;;;;4174745;28;20278;-57
2021/01/21 01:37:29;;;;;;;97.00;45.70;;;-0.30;99.90;;;;;;4173582;28;20266;-56
2021/01/21 01:39:31;;;;;;;104.00;49.50;;;-0.30;99.90;;;;;;4175583;28;20274;-55
2021/01/21 01:41:32;;;;;;;96.37;46.73;;;-0.30;99.90;;;;;;4173314;28;20355;-58
2021/01/21 01:43:33;;;;;;;103.00;49.20;;;-0.30;99.90;;;;;;4175960;28;20273;-57
2021/01/21 01:45:34;;;;;;;103.23;47.00;;;-0.30;99.90;;;;;;4173257;28;20258;-56
2021/01/21 01:47:38;;;;;;;101.67;48.03;;;-0.20;99.90;;;;;;4174298;28;20406;-58
2021/01/21 01:49:39;;;;;;;99.67;46.57;;;-0.20;99.90;;;;;;4174824;28;20806;-58
2021/01/21 01:51:44;;;;;;;100.97;48.43;;;-0.20;99.90;;;;;;4173794;28;20754;-59
2021/01/21 01:53:45;;;;;;;110.50;47.97;;;-0.30;99.90;;;;;;4173058;28;20320;-56
2021/01/21 01:55:46;;;;;;;116.33;51.83;;;-0.20;99.90;;;;;;4173395;28;21402;-58
2021/01/21 01:57:54;;;;;;;109.07;50.90;;;-0.30;99.90;;;;;;4174451;28;20266;-58
2021/01/21 02:00:00;;;;;;;109.13;51.50;;;-0.40;99.90;;;;;;4172994;28;20259;-55
2021/01/21 02:02:01;;;;;;;114.37;52.20;;;-0.30;99.90;;;;;;4174747;28;20689;-58
2021/01/21 02:04:02;;;;;;;113.20;51.90;;;-0.40;99.90;;;;;;4173082;28;20344;-60
2021/01/21 02:06:04;;;;;;;109.13;49.23;;;-0.30;99.90;;;;;;4174784;28;20356;-58
2021/01/21 02:08:05;;;;;;;104.43;49.50;;;-0.40;99.90;;;;;;4172981;28;20323;-59
2021/01/21 02:10:08;;;;;;;105.20;51.37;;;-0.30;99.90;;;;;;4174401;28;20262;-56
2021/01/21 02:12:28;;;;;;;104.83;51.00;;;-0.30;99.90;;;;;;4173266;28;20278;-58
2021/01/21 02:15:07;;;;;;;112.95;51.42;;;-0.30;99.90;;;;;;4174573;28;20351;-59
2021/01/21 02:17:19;;;;;;;106.87;49.43;;;-0.30;99.90;;;;;;4172590;28;20041;-57
2021/01/21 02:19:51;;;;;;;105.47;47.70;;;-0.30;99.90;;;;;;4174934;28;21174;-60
2021/01/21 02:22:01;;;;;;;98.17;45.80;;;-0.30;99.90;;;;;;4189523;28;20747;-58
2021/01/21 02:24:27;;;;;;;99.38;44.30;;;-0.40;99.90;;;;;;4190415;28;20265;-59
2021/01/21 02:26:32;;;;;;;109.73;45.83;;;-0.40;99.90;;;;;;4189934;28;20032;-59
2021/01/21 02:28:40;;;;;;;114.03;48.20;;;-0.40;99.90;;;;;;4189948;28;21079;-59
2021/01/21 02:31:02;;;;;;;107.77;48.33;;;-0.40;99.90;;;;;;4189881;28;20326;-57
2021/01/21 02:33:39;;;;;;;108.10;46.60;;;-0.40;99.90;;;;;;4189210;28;20266;-59
2021/01/21 02:35:44;;;;;;;103.13;45.47;;;-0.40;99.90;;;;;;4190288;28;20292;-60
2021/01/21 02:37:53;;;;;;;107.40;47.50;;;-0.40;99.90;;;;;;4188339;28;20673;-58
2021/01/21 02:39:56;;;;;;;100.23;45.33;;;-0.50;99.90;;;;;;4190590;28;20649;-59
2021/01/21 02:41:58;;;;;;;101.20;46.60;;;-0.50;99.90;;;;;;4188707;28;20355;-60
2021/01/21 02:43:59;;;;;;;101.30;44.60;;;-0.60;99.90;;;;;;4188749;28;20273;-58
2021/01/21 02:46:00;;;;;;;105.87;46.40;;;-0.70;99.90;;;;;;4189233;28;20241;-57
2021/01/21 02:48:03;;;;;;;108.43;46.97;;;-0.70;99.90;;;;;;4190065;28;20250;-58
2021/01/21 02:50:05;;;;;;;100.17;44.87;;;-0.80;99.90;;;;;;4189403;28;20257;-59
2021/01/21 02:52:31;;;;;;;102.80;46.33;;;-0.80;99.90;;;;;;4189196;28;20328;-59
2021/01/21 02:54:40;;;;;;;100.30;45.27;;;-0.80;99.90;;;;;;4177164;28;20274;-60
2021/01/21 02:56:43;;;;;;;104.10;46.13;;;-0.80;99.90;;;;;;4173063;28;20255;-58
2021/01/21 02:58:45;;;;;;;102.40;45.57;;;-0.80;99.90;;;;;;4172440;28;20262;-57
2021/01/21 03:00:49;;;;;;;93.77;44.63;;;-0.80;99.90;;;;;;4172939;28;20278;-57
2021/01/21 03:02:57;;;;;;;99.03;45.40;;;-0.90;99.90;;;;;;4173114;28;20297;-60
2021/01/21 03:04:59;;;;;;;95.07;43.97;;;-0.90;99.90;;;;;;4171861;28;20899;-59
2021/01/21 03:07:01;;;;;;;96.93;44.67;;;-0.90;99.90;;;;;;4173227;28;20784;-58
2021/01/21 03:09:04;;;;;;;101.67;44.40;;;-0.90;99.90;;;;;;4176938;28;20681;-61
2021/01/21 03:11:13;;;;;;;100.87;45.50;;;-0.90;99.90;;;;;;4189966;28;20262;-59
2021/01/21 03:13:14;;;;;;;99.93;44.30;;;-0.90;99.90;;;;;;4188417;28;20314;-58
2021/01/21 03:15:15;;;;;;;111.60;47.70;;;-0.90;99.90;;;;;;4189588;28;20265;-59
2021/01/21 03:17:21;;;;;;;104.97;47.07;;;-0.90;99.90;;;;;;4188109;28;20265;-61
2021/01/21 03:19:22;;;;;;;100.87;45.67;;;-0.90;99.90;;;;;;4189290;28;20281;-53
2021/01/21 03:21:23;;;;;;;103.43;47.83;;;-0.90;99.90;;;;;;4188571;28;20303;-54
2021/01/21 03:23:25;;;;;;;99.97;45.57;;;-0.90;99.90;;;;;;4190290;28;20293;-60
2021/01/21 03:25:26;;;;;;;102.07;44.10;;;-0.90;99.90;;;;;;4178964;28;20401;-57
2021/01/21 03:27:27;;;;;;;116.30;47.57;;;-0.90;99.90;;;;;;4173602;28;20293;-55
2021/01/21 03:29:28;;;;;;;104.83;44.93;;;-0.90;99.90;;;;;;4173259;28;20340;-61
2021/01/21 03:31:29;;;;;;;105.57;45.17;;;-0.90;99.90;;;;;;4190056;28;20289;-62
2021/01/21 03:33:31;;;;;;;105.37;47.97;;;-0.90;99.90;;;;;;4188882;28;20261;-58
2021/01/21 03:35:32;;;;;;;115.20;51.50;;;-0.90;99.90;;;;;;4189093;28;20669;-60
2021/01/21 03:37:34;;;;;;;113.70;51.50;;;-0.90;99.90;;;;;;4188896;28;20274;-57
2021/01/21 03:39:35;;;;;;;120.33;51.60;;;-0.90;99.90;;;;;;4188292;28;20262;-60
2021/01/21 03:41:37;;;;;;;123.43;52.33;;;-0.90;99.90;;;;;;4189015;28;20265;-57
2021/01/21 03:43:39;;;;;;;121.17;54.00;;;-0.90;99.90;;;;;;4177624;28;20761;-58
2021/01/21 03:45:40;;;;;;;131.27;57.53;;;-0.90;99.90;;;;;;4172098;28;20774;-60
2021/01/21 03:47:41;;;;;;;129.10;58.03;;;-0.80;99.90;;;;;;4171757;28;20273;-60
2021/01/21 03:49:42;;;;;;;149.57;68.27;;;-0.80;99.90;;;;;;4173571;28;20297;-56
2021/01/21 03:51:43;;;;;;;167.03;71.47;;;-0.80;99.90;;;;;;4171520;28;20320;-58
2021/01/21 03:53:45;;;;;;;143.17;66.80;;;-0.90;99.90;;;;;;4173254;28;20254;-57
2021/01/21 03:55:46;;;;;;;139.87;63.83;;;-0.90;99.90;;;;;;4171126;28;20772;-61
2021/01/21 03:57:47;;;;;;;149.03;65.33;;;-0.90;99.90;;;;;;4172988;28;20274;-57
2021/01/21 03:59:48;;;;;;;136.13;58.67;;;-0.90;99.90;;;;;;4171137;28;20286;-60
2021/01/21 04:01:49;;;;;;;135.60;58.57;;;-0.90;99.90;;;;;;4173132;28;20332;-57
2021/01/21 04:03:51;;;;;;;130.10;55.43;;;-0.90;99.90;;;;;;4171649;28;20265;-61
2021/01/21 04:05:52;;;;;;;120.60;56.40;;;-1.00;99.90;;;;;;4183004;28;20426;-57
2021/01/21 04:07:53;;;;;;;106.70;45.37;;;-0.90;99.90;;;;;;4188538;28;20819;-61
2021/01/21 04:09:54;;;;;;;123.47;51.57;;;-1.00;99.90;;;;;;4188296;28;20382;-57
2021/01/21 04:11:55;;;;;;;123.80;53.23;;;-0.90;99.90;;;;;;4189617;28;20342;-57
2021/01/21 04:13:57;;;;;;;129.43;54.63;;;-0.90;99.90;;;;;;4187447;28;20315;-53
2021/01/21 04:15:58;;;;;;;122.33;54.70;;;-0.90;99.90;;;;;;4189340;28;20331;-59
2021/01/21 04:17:59;;;;;;;119.03;52.40;;;-1.00;99.90;;;;;;4190125;28;20757;-60
2021/01/21 04:20:00;;;;;;;108.60;50.07;;;-1.00;99.90;;;;;;4192703;28;20266;-57
2021/01/21 04:22:01;;;;;;;115.97;52.23;;;-1.00;99.90;;;;;;4190799;28;20277;-57
2021/01/21 04:24:03;;;;;;;114.63;52.33;;;-1.10;99.90;;;;;;4192308;28;20680;-56
2021/01/21 04:26:04;;;;;;;111.67;51.43;;;-1.10;99.90;;;;;;4175140;28;20288;-56
2021/01/21 04:28:06;;;;;;;109.77;48.40;;;-1.10;99.90;;;;;;4175925;28;20319;-56
2021/01/21 04:30:08;;;;;;;113.17;46.90;;;-1.10;99.90;;;;;;4174174;28;20274;-58
2021/01/21 04:32:09;;;;;;;107.90;45.07;;;-1.10;99.90;;;;;;4173739;28;20286;-60
2021/01/21 04:34:10;;;;;;;104.00;44.10;;;-1.20;99.90;;;;;;4174388;28;20266;-54
2021/01/21 04:36:11;;;;;;;110.30;46.83;;;-1.20;99.90;;;;;;4174891;28;20304;-58
2021/01/21 04:38:12;;;;;;;101.57;46.07;;;-1.10;99.90;;;;;;4175000;28;20561;-58
2021/01/21 04:40:14;;;;;;;110.60;45.37;;;-1.20;99.90;;;;;;4174457;28;20262;-57
2021/01/21 04:42:15;;;;;;;141.33;43.80;;;-1.20;99.90;;;;;;4186102;28;20305;-55
2021/01/21 04:44:16;;;;;;;138.60;42.57;;;-1.20;99.90;;;;;;4190583;28;20347;-57
2021/01/21 04:46:18;;;;;;;107.93;42.40;;;-1.20;99.90;;;;;;4180598;28;20274;-59
2021/01/21 04:48:21;;;;;;;102.33;42.83;;;-1.20;99.90;;;;;;4174252;28;20327;-59
2021/01/21 04:50:22;;;;;;;100.80;43.87;;;-1.20;99.90;;;;;;4175511;28;20773;-60
2021/01/21 04:52:26;;;;;;;91.70;40.67;;;-1.20;99.90;;;;;;4173789;28;20331;-59
2021/01/21 04:54:32;;;;;;;92.50;40.63;;;-1.20;99.90;;;;;;4175687;28;20290;-59
2021/01/21 04:56:38;;;;;;;85.67;38.77;;;-1.10;99.90;;;;;;4173908;28;20739;-60
2021/01/21 04:58:48;;;;;;;101.37;45.80;;;-1.10;99.90;;;;;;4188786;28;20273;-60
2021/01/21 05:00:50;;;;;;;106.97;46.03;;;-1.10;99.90;;;;;;4184754;28;20273;-57
2021/01/21 05:02:52;;;;;;;120.00;54.50;;;-1.10;99.90;;;;;;4176039;28;20366;-57
2021/01/21 05:04:55;;;;;;;127.37;54.40;;;-1.10;99.90;;;;;;4173602;28;20686;-59
2021/01/21 05:06:57;;;;;;;114.13;51.03;;;-1.10;99.90;;;;;;4175279;28;20270;-58
2021/01/21 05:08:59;;;;;;;131.97;59.03;;;-1.10;99.90;;;;;;4173966;28;20254;-58
2021/01/21 05:11:00;;;;;;;150.77;66.00;;;-1.20;99.90;;;;;;4174646;28;20600;-60
2021/01/21 05:13:03;;;;;;;128.63;56.10;;;-1.20;99.90;;;;;;4174027;28;20266;-56
2021/01/21 05:15:05;;;;;;;124.70;54.43;;;-1.10;99.90;;;;;;4174014;28;20269;-58
2021/01/21 05:17:06;;;;;;;113.90;51.30;;;-1.10;99.90;;;;;;4175157;28;20388;-59
2021/01/21 05:19:12;;;;;;;124.67;55.53;;;-1.10;99.90;;;;;;4173914;28;20262;-53
2021/01/21 05:21:16;;;;;;;117.93;52.43;;;-1.10;99.90;;;;;;4174937;28;20936;-57
2021/01/21 05:23:17;;;;;;;127.07;53.73;;;-1.10;99.90;;;;;;4171450;28;20305;-56
2021/01/21 05:25:19;;;;;;;122.17;54.10;;;-1.20;99.90;;;;;;4175428;28;20282;-61
2021/01/21 05:27:21;;;;;;;110.10;49.40;;;-1.20;99.90;;;;;;4173394;28;20286;-54
2021/01/21 05:29:22;;;;;;;109.23;51.90;;;-1.20;99.90;;;;;;4173797;28;20308;-59
2021/01/21 05:31:28;;;;;;;113.30;51.43;;;-1.20;99.90;;;;;;4173724;28;20290;-58
2021/01/21 05:33:29;;;;;;;117.47;51.70;;;-1.20;99.90;;;;;;4174829;28;20305;-55
2021/01/21 05:35:30;;;;;;;110.07;47.37;;;-1.20;99.90;;;;;;4172768;28;20281;-55
2021/01/21 05:37:38;;;;;;;109.10;45.90;;;-1.20;99.90;;;;;;4181931;28;20815;-56
2021/01/21 05:39:43;;;;;;;101.20;44.10;;;-1.20;99.90;;;;;;4187125;28;20316;-56
2021/01/21 05:41:45;;;;;;;106.33;45.90;;;-1.20;99.90;;;;;;4191741;28;20744;-63
2021/01/21 05:43:49;;;;;;;94.73;44.30;;;-1.30;99.90;;;;;;4188792;28;20297;-56
2021/01/21 05:45:51;;;;;;;94.47;42.90;;;-1.30;99.90;;;;;;4180957;28;20387;-60
2021/01/21 05:48:02;;;;;;;88.03;41.30;;;-1.20;99.90;;;;;;4178230;28;20631;-60
2021/01/21 05:50:03;;;;;;;91.40;44.25;;;-1.20;99.90;;;;;;4190554;28;20331;-59
2021/01/21 05:52:05;;;;;;;100.80;46.23;;;-1.20;99.90;;;;;;4189720;28;20028;-57
2021/01/21 05:54:08;;;;;;;98.43;45.10;;;-1.30;99.90;;;;;;4188015;28;20618;-58
2021/01/21 05:56:10;;;;;;;103.07;45.97;;;-1.30;99.90;;;;;;4178934;28;21036;-54
2021/01/21 05:58:11;;;;;;;106.33;49.40;;;-1.30;99.90;;;;;;4173217;28;20319;-56
2021/01/21 06:00:18;;;;;;;113.67;50.03;;;-1.30;99.90;;;;;;4173802;28;20266;-54
2021/01/21 06:02:19;;;;;;;111.33;52.20;;;-1.20;99.90;;;;;;4172024;28;20267;-64
2021/01/21 06:04:28;;;;;;;129.97;56.00;;;-1.20;99.90;;;;;;4174205;28;21145;-57
2021/01/21 06:06:29;;;;;;;112.07;53.97;;;-1.20;99.90;;;;;;4172877;28;20262;-56
2021/01/21 06:08:30;;;;;;;120.60;51.70;;;-1.20;99.90;;;;;;4178320;28;20277;-61
2021/01/21 06:10:34;;;;;;;120.67;52.17;;;-1.10;99.90;;;;;;4177851;28;20323;-60
2021/01/21 06:12:36;;;;;;;111.33;52.07;;;-1.10;99.90;;;;;;4176691;28;20355;-60
2021/01/21 06:14:37;;;;;;;125.27;56.73;;;-1.10;99.90;;;;;;4188435;28;20335;-58
2021/01/21 06:16:40;;;;;;;124.50;56.87;;;-1.10;99.90;;;;;;4190337;28;20350;-59
2021/01/21 06:18:42;;;;;;;120.17;56.77;;;-1.00;99.90;;;;;;4188918;28;20269;-56
2021/01/21 06:20:43;;;;;;;135.57;61.97;;;-1.00;99.90;;;;;;4190641;28;20757;-58
2021/01/21 06:22:46;;;;;;;137.43;64.67;;;-1.00;99.90;;;;;;4188681;28;20366;-56
2021/01/21 06:24:49;;;;;;;129.63;60.50;;;-1.00;99.90;;;;;;4189737;28;20323;-59
2021/01/21 06:26:51;;;;;;;113.97;53.97;;;-1.00;99.90;;;;;;4188765;28;20664;-60
2021/01/21 06:28:58;;;;;;;114.03;52.93;;;-0.90;99.90;;;;;;4190273;28;20315;-56
2021/01/21 06:31:00;;;;;;;117.80;52.63;;;-0.90;99.90;;;;;;4185018;28;20282;-58
2021/01/21 06:33:06;;;;;;;133.53;58.47;;;-0.90;99.90;;;;;;4173289;28;20262;-61
2021/01/21 06:35:10;;;;;;;141.30;62.17;;;-0.90;99.90;;;;;;4172859;28;20339;-61
2021/01/21 06:37:16;;;;;;;140.13;60.83;;;-0.80;99.90;;;;;;4173031;28;20260;-60
2021/01/21 06:39:29;;;;;;;138.37;59.43;;;-0.80;99.90;;;;;;4173061;28;20408;-55
2021/01/21 06:41:36;;;;;;;131.20;58.37;;;-0.80;99.90;;;;;;4172867;28;20278;-61
2021/01/21 06:43:39;;;;;;;127.20;57.00;;;-0.70;99.90;;;;;;4172915;28;20339;-60
2021/01/21 06:45:42;;;;;;;116.17;52.73;;;-0.70;99.90;;;;;;4171878;28;20269;-63
2021/01/21 06:47:43;;;;;;;114.37;53.57;;;-0.70;99.90;;;;;;4173367;28;20308;-58
2021/01/21 06:49:45;;;;;;;118.80;54.20;;;-0.60;99.90;;;;;;4170582;28;20336;-57
2021/01/21 06:51:48;;;;;;;135.50;61.73;;;-0.60;99.90;;;;;;4173850;28;20265;-63
2021/01/21 06:53:53;;;;;;;135.57;58.83;;;-0.50;99.90;;;;;;4171918;28;20262;-60
2021/01/21 06:55:54;;;;;;;135.30;60.60;;;-0.60;99.90;;;;;;4173385;28;20752;-59
2021/01/21 06:57:55;;;;;;;141.70;62.43;;;-0.50;99.90;;;;;;4171846;28;20262;-58
2021/01/21 06:59:56;;;;;;;137.67;64.57;;;-0.50;99.90;;;;;;4173520;28;20319;-59
2021/01/21 07:01:57;;;;;;;145.23;66.53;;;-0.50;99.90;;;;;;4171986;28;20312;-57
2021/01/21 07:04:10;;;;;;;164.70;69.87;;;-0.50;99.90;;;;;;4171645;28;20298;-56
2021/01/21 07:06:11;;;;;;;157.43;65.90;;;-0.40;99.90;;;;;;4171196;28;20823;-57
2021/01/21 07:08:12;;;;;;;128.30;55.50;;;-0.30;99.90;;;;;;4173814;28;20324;-58
2021/01/21 07:10:13;;;;;;;127.40;57.40;;;-0.40;99.90;;;;;;4170401;28;20278;-60
2021/01/21 07:12:17;;;;;;;134.10;58.87;;;-0.40;99.90;;;;;;4173155;28;20725;-58
2021/01/21 07:14:20;;;;;;;135.43;59.03;;;-0.40;99.90;;;;;;4171591;28;20359;-62
2021/01/21 07:16:22;;;;;;;131.37;61.53;;;-0.30;99.90;;;;;;4172775;28;20815;-63
2021/01/21 07:18:30;;;;;;;131.47;58.93;;;-0.30;99.90;;;;;;4171710;28;20278;-59
2021/01/21 07:20:33;;;;;;;132.40;59.17;;;-0.20;99.90;;;;;;4172026;28;20339;-56
2021/01/21 07:22:34;;;;;;;128.10;62.33;;;-0.20;99.90;;;;;;4171883;28;20311;-54
2021/01/21 07:24:44;;;;;;;154.50;72.63;;;-0.10;99.90;;;;;;4171436;28;20327;-61
2021/01/21 07:26:52;;;;;;;157.48;71.80;;;-0.10;99.90;;;;;;4171627;28;20357;-58
2021/01/21 07:29:06;;;;;;;146.13;69.33;;;0.00;99.90;;;;;;4171750;28;20040;-56
2021/01/21 07:31:07;;;;;;;162.13;74.20;;;0.00;99.90;;;;;;4172515;28;20360;-56
2021/01/21 07:33:22;;;;;;;148.43;70.80;;;0.00;99.90;;;;;;4171579;28;20289;-57
2021/01/21 07:35:32;;;;;;;152.07;69.20;;;0.00;99.90;;;;;;4172078;28;20274;-57
2021/01/21 07:37:45;;;;;;;147.25;68.85;;;0.10;99.90;;;;;;4171226;28;20278;-59
2021/01/21 07:39:47;;;;;;;142.10;63.87;;;0.10;99.90;;;;;;4172380;28;20029;-58
2021/01/21 07:41:54;;;;;;;124.83;59.53;;;0.20;99.90;;;;;;4171468;28;20330;-60
2021/01/21 07:43:56;;;;;;;121.37;57.07;;;0.20;99.90;;;;;;4173000;28;20359;-59
2021/01/21 07:46:23;;;;;;;113.77;53.60;;;0.20;99.90;;;;;;4171427;28;20328;-60
2021/01/21 07:48:27;;;;;;;110.00;50.87;;;0.20;99.90;;;;;;4172811;28;20312;-59
2021/01/21 07:50:30;;;;;;;102.87;49.03;;;0.30;99.90;;;;;;4171414;28;20673;-59
2021/01/21 07:52:43;;;;;;;95.27;45.07;;;0.30;99.90;;;;;;4174729;28;20262;-58
2021/01/21 07:54:48;;;;;;;102.77;45.90;;;0.40;99.90;;;;;;4174775;28;20332;-59
2021/01/21 07:56:49;;;;;;;98.10;44.50;;;0.40;99.90;;;;;;4176658;28;20270;-58
2021/01/21 07:59:02;;;;;;;97.80;44.63;;;0.40;99.90;;;;;;4174842;28;20274;-59
2021/01/21 08:01:08;;;;;;;97.77;46.00;;;0.50;99.90;;;;;;4176497;28;20830;-58
2021/01/21 08:03:09;;;;;;;98.93;46.33;;;0.70;99.90;;;;;;4174505;28;20839;-58
2021/01/21 08:05:12;;;;;;;98.93;47.83;;;0.80;99.90;;;;;;4176428;28;20332;-58
2021/01/21 08:07:13;;;;;;;104.17;47.37;;;0.90;99.90;;;;;;4174349;28;20269;-58
2021/01/21 08:09:20;;;;;;;90.17;43.80;;;1.10;99.90;;;;;;4176318;28;20286;-56
2021/01/21 08:11:23;;;;;;;86.80;42.40;;;1.10;99.90;;;;;;4174522;28;20265;-58
2021/01/21 08:13:24;;;;;;;86.83;42.60;;;1.30;99.90;;;;;;4175854;28;20278;-57
2021/01/21 08:15:28;;;;;;;86.77;40.63;;;1.40;99.90;;;;;;4181651;28;20660;-62
2021/01/21 08:17:29;;;;;;;93.87;41.67;;;1.60;99.90;;;;;;4191924;28;20265;-55
2021/01/21 08:19:37;;;;;;;79.03;40.20;;;1.70;99.90;;;;;;4189840;28;20257;-54
2021/01/21 08:21:38;;;;;;;82.50;38.47;;;1.70;99.90;;;;;;4183549;28;20305;-52
2021/01/21 08:23:40;;;;;;;87.83;39.20;;;1.50;99.90;;;;;;4187782;28;20305;-59
2021/01/21 08:25:48;;;;;;;92.70;41.20;;;1.30;99.90;;;;;;4177780;28;20811;-64
2021/01/21 08:27:51;;;;;;;78.77;35.93;;;1.10;99.90;;;;;;4186398;28;20322;-63
2021/01/21 08:29:52;;;;;;;94.83;42.47;;;1.10;99.90;;;;;;4183688;28;20277;-46
2021/01/21 08:31:53;;;;;;;95.20;44.73;;;1.00;99.90;;;;;;4191633;28;20277;-54
2021/01/21 08:33:55;;;;;;;96.07;45.13;;;1.00;99.90;;;;;;4190822;28;20603;-56
2021/01/21 08:36:08;;;;;;;86.37;41.30;;;1.10;99.90;;;;;;4192294;28;20745;-50
2021/01/21 08:38:13;;;;;;;89.63;42.73;;;1.20;99.90;;;;;;4173456;28;20273;-62
2021/01/21 08:40:16;;;;;;;92.10;41.53;;;1.20;99.90;;;;;;4175178;28;20331;-58
2021/01/21 08:42:17;;;;;;;87.40;42.47;;;1.20;99.90;;;;;;4174403;28;20673;-66
2021/01/21 08:44:19;;;;;;;91.83;41.93;;;1.20;99.90;;;;;;4175658;28;20705;-61
2021/01/21 08:46:22;;;;;;;92.70;42.23;;;1.20;99.90;;;;;;4172247;28;20317;-63
2021/01/21 08:48:24;;;;;;;93.53;42.50;;;1.10;99.90;;;;;;4177599;28;20642;-61
2021/01/21 08:50:39;;;;;;;89.87;41.43;;;1.20;99.90;;;;;;4190075;28;20319;-62
2021/01/21 08:53:02;;;;;;;82.00;37.87;;;1.30;99.90;;;;;;4178162;28;20281;-64
2021/01/21 08:55:04;;;;;;;82.87;38.93;;;1.30;99.90;;;;;;4177101;28;20324;-61
2021/01/21 08:57:07;;;;;;;86.83;38.77;;;1.40;99.90;;;;;;4175785;28;20274;-64
2021/01/21 08:59:28;;;;;;;93.93;40.60;;;1.50;99.90;;;;;;4174365;28;20320;-64
2021/01/21 09:01:42;;;;;;;82.17;35.77;;;1.70;99.90;;;;;;4177242;28;20270;-63
2021/01/21 09:03:48;;;;;;;82.60;38.57;;;1.80;99.90;;;;;;4188677;28;20293;-66
2021/01/21 09:05:56;;;;;;;80.40;38.40;;;1.80;99.90;;;;;;4192204;28;20326;-58
2021/01/21 09:08:06;;;;;;;81.77;37.53;;;2.00;99.90;;;;;;4178840;28;20312;-64
2021/01/21 09:10:14;;;;;;;84.47;39.90;;;2.20;99.90;;;;;;4179196;28;20762;-62
2021/01/21 09:12:19;;;;;;;79.53;39.53;;;2.20;99.90;;;;;;4184237;28;20285;-63
2021/01/21 09:14:23;;;;;;;89.57;40.63;;;2.30;99.90;;;;;;4192021;28;20806;-64
2021/01/21 09:16:42;;;;;;;88.10;40.70;;;2.30;99.90;;;;;;4189335;28;20273;-66
2021/01/21 09:18:45;;;;;;;83.93;40.50;;;2.30;99.90;;;;;;4186286;28;20289;-67
2021/01/21 09:20:47;;;;;;;79.10;37.30;;;2.20;99.90;;;;;;4183475;28;20339;-65
2021/01/21 09:22:49;;;;;;;89.37;41.37;;;2.30;99.90;;;;;;4179024;28;20292;-62
2021/01/21 09:25:00;;;;;;;84.77;38.33;;;2.40;99.90;;;;;;4173612;28;20742;-60
2021/01/21 09:27:17;;;;;;;87.43;39.20;;;2.40;99.90;;;;;;4174771;28;20697;-60
2021/01/21 09:29:19;;;;;;;82.53;37.80;;;2.60;99.90;;;;;;4188361;28;20274;-60
2021/01/21 09:31:22;;;;;;;85.23;37.93;;;2.70;99.90;;;;;;4190269;28;21381;-59
2021/01/21 09:33:26;;;;;;;82.37;37.57;;;2.70;99.90;;;;;;4189975;28;20273;-64
2021/01/21 09:35:28;;;;;;;76.60;37.80;;;2.80;99.90;;;;;;4190950;28;20334;-64
2021/01/21 09:37:34;;;;;;;81.47;39.03;;;2.90;99.90;;;;;;4180529;28;20319;-63
2021/01/21 09:39:36;;;;;;;90.33;41.47;;;2.80;99.90;;;;;;4191030;28;20261;-59
2021/01/21 09:41:37;;;;;;;84.87;40.17;;;2.90;99.90;;;;;;4171598;28;20278;-60
2021/01/21 09:43:41;;;;;;;85.37;40.03;;;3.10;99.90;;;;;;4189068;28;20290;-63
2021/01/21 09:45:42;;;;;;;79.73;37.73;;;3.30;99.90;;;;;;4188898;28;20285;-63
2021/01/21 09:47:47;;;;;;;71.23;37.43;;;3.40;99.90;;;;;;4189649;28;20565;-62
2021/01/21 09:49:48;;;;;;;68.77;34.40;;;3.50;99.90;;;;;;4190608;28;20258;-62
2021/01/21 09:51:50;;;;;;;58.17;29.70;;;3.50;99.90;;;;;;4185107;28;20274;-60
2021/01/21 09:53:51;;;;;;;61.77;32.07;;;3.30;99.90;;;;;;4187478;28;20330;-61
2021/01/21 09:55:55;;;;;;;57.40;31.27;;;3.10;99.90;;;;;;4189183;28;20275;-63
2021/01/21 09:57:56;;;;;;;60.23;31.57;;;3.10;99.90;;;;;;4189054;28;20269;-61
2021/01/21 09:59:58;;;;;;;60.70;31.43;;;3.10;99.90;;;;;;4189789;28;20242;-62
2021/01/21 10:01:59;;;;;;;62.10;31.80;;;3.10;99.90;;;;;;4191157;28;20281;-61
2021/01/21 10:04:00;;;;;;;58.50;29.60;;;3.10;99.90;;;;;;4187641;28;20351;-62
2021/01/21 10:06:04;;;;;;;56.73;30.00;;;2.90;99.90;;;;;;4190872;28;20266;-62
2021/01/21 10:08:06;;;;;;;58.50;31.33;;;2.80;99.90;;;;;;4188641;28;20874;-62
2021/01/21 10:10:08;;;;;;;61.03;31.60;;;2.70;99.90;;;;;;4187784;28;20316;-63
2021/01/21 10:12:10;;;;;;;61.60;30.93;;;2.70;99.90;;;;;;4178624;28;20335;-62
2021/01/21 10:14:11;;;;;;;58.93;30.37;;;2.70;99.90;;;;;;4190153;28;20330;-63
2021/01/21 10:16:13;;;;;;;60.10;32.10;;;2.70;99.90;;;;;;4188500;28;20721;-63
2021/01/21 10:18:14;;;;;;;58.63;30.07;;;2.80;99.90;;;;;;4182870;28;20800;-64
2021/01/21 10:20:15;;;;;;;60.97;33.13;;;2.80;99.90;;;;;;4189045;28;20394;-61
2021/01/21 10:22:17;;;;;;;59.63;31.50;;;2.80;99.90;;;;;;4189994;28;20369;-71
2021/01/21 10:24:18;;;;;;;65.20;32.83;;;2.70;99.90;;;;;;4189993;28;20289;-61